Grace Chapel, North Carolina
Current Conditions -  °F | °C
As of 5:53 AM on Friday 24 Oct 2014 (Local Time) from KHKY Reporting Station
Clear Clear  
Wind Chill: 39°   Ceiling: Unl
Heat Index: 43°   Visibility: 10mi
Dew Point: 40°   Wind: 7mph
Humidity: 89%   Direction: 290°WNW
Pressure: 30.04"   Gusts: NA
Location:  35.83°N, 81.4147°W
Report Text: KHKY 240953Z AUTO 29006KT 10SM CLR 06/04 A3004 RMK AO2 SLP161 T00610044
Loading
Personal Weather Stations






























Interactive Weather Map
Tropical Storm Tracking
New forecast layout! Learn more

10-Day Weather Forecast

Advertisements
Track Severe Weather on mobile